KDMO/DMO METAR and TAF weather

Enter ICAO airport designator
Station Type Date Time Source
KDMO METAR 2023/10/01 20:53 UTC NOAA

KDMO 012053Z AUTO 15005KT 10SM CLR 32/15 A3015 RMK AO2 SLP201 T03220150 56018 $


Station Type Date Time Source
KDMO Decoded METAR 2023/10/01 20:53 UTC NOAA

SEDALIA MEMORIAL AIRPORT, MO, United States (KDMO) 38-43N 93-10W 274M
Oct 01, 2023 - 04:53 PM EDT / 2023.10.01 2053 UTC
Wind: from the SSE (150 degrees) at 6 MPH (5 KT):0
Visibility: 10 mile(s):0
Sky conditions: clear
Temperature: 90.0 F (32.2 C)
Dew Point: 59.0 F (15.0 C)
Relative Humidity: 35%
Pressure (altimeter): 30.15 in. Hg (1020 hPa)
Pressure tendency: 0.05 inches (1.8 hPa) lower than three hours ago
ob: KDMO 012053Z AUTO 15005KT 10SM CLR 32/15 A3015 RMK AO2 SLP201 T03220150 56018
cycle: 21

Station Type Date Time Source
KDMO TAF UTC NOAA

Error!

Example: see airport list